Time;durP1;ratioP1;P1;durP2;ratioP2;P2;SDS_P1;SDS_P2;PMS_P1;PMS_P2;Temp;Humidity;BMP_temperature;BMP_pressure;BME280_temperature;BME280_humidity;BME280_pressure;Samples;Min_cycle;Max_cycle;Signal;HPM_P1;HPM_P2
2022/10/18 00:00:38;;;;;;;91.45;28.45;;;14.20;1.00;;;;;;6246739;22;20167;-87
2022/10/18 00:03:05;;;;;;;90.32;28.45;;;14.20;1.00;;;;;;6247164;23;20222;-88
2022/10/18 00:05:32;;;;;;;87.70;28.05;;;14.20;1.00;;;;;;6247036;22;20164;-87
2022/10/18 00:07:59;;;;;;;88.95;28.10;;;14.10;1.00;;;;;;6246786;22;20250;-87
2022/10/18 00:10:26;;;;;;;89.63;28.25;;;14.10;1.00;;;;;;6246989;23;20160;-87
2022/10/18 00:12:53;;;;;;;88.75;28.23;;;14.00;1.00;;;;;;6246916;22;20183;-87
2022/10/18 00:15:21;;;;;;;92.10;28.65;;;14.10;1.00;;;;;;6247084;23;20164;-87
2022/10/18 00:17:48;;;;;;;92.53;28.83;;;14.00;1.00;;;;;;6247055;22;20222;-87
2022/10/18 00:20:15;;;;;;;92.18;28.65;;;14.00;1.00;;;;;;6246907;22;20218;-86
2022/10/18 00:22:42;;;;;;;94.43;28.77;;;14.00;1.00;;;;;;6246830;22;20517;-86
2022/10/18 00:25:10;;;;;;;96.60;29.05;;;13.90;1.00;;;;;;6247060;22;20175;-86
2022/10/18 00:27:37;;;;;;;91.78;28.65;;;13.90;1.00;;;;;;6246971;23;20164;-86
2022/10/18 00:30:05;;;;;;;90.90;28.38;;;13.80;1.00;;;;;;6246644;23;20191;-87
2022/10/18 00:32:36;;;;;;;91.22;28.35;;;13.80;1.00;;;;;;6246732;23;20188;-88
2022/10/18 00:35:04;;;;;;;93.00;28.65;;;13.80;1.00;;;;;;6247019;23;20184;-87
2022/10/18 00:37:32;;;;;;;92.95;28.70;;;13.80;1.00;;;;;;6246177;23;20369;-86
2022/10/18 00:39:59;;;;;;;94.80;29.00;;;13.80;1.00;;;;;;6246556;23;20513;-89
2022/10/18 00:42:30;;;;;;;93.55;28.90;;;13.80;1.00;;;;;;6246221;23;20611;-88
2022/10/18 00:45:15;;;;;;;93.63;28.83;;;13.80;1.00;;;;;;6246268;23;20187;-87
2022/10/18 00:47:46;;;;;;;95.95;29.20;;;13.80;1.00;;;;;;6246245;23;20159;-86
2022/10/18 00:50:14;;;;;;;94.68;28.95;;;13.70;1.00;;;;;;6246293;23;20144;-88
2022/10/18 00:52:43;;;;;;;93.28;28.90;;;13.70;1.00;;;;;;6246112;22;20518;-86
2022/10/18 00:55:11;;;;;;;92.28;28.75;;;13.70;1.00;;;;;;6246422;23;20519;-86
2022/10/18 00:57:40;;;;;;;93.68;29.10;;;13.70;1.00;;;;;;6246856;23;20217;-86
2022/10/18 01:00:09;;;;;;;96.63;29.48;;;13.70;1.00;;;;;;6246578;23;20201;-86
2022/10/18 01:02:36;;;;;;;97.40;29.48;;;13.70;25.10;;;;;;6246655;23;20195;-86
2022/10/18 01:05:06;;;;;;;98.05;29.40;;;13.60;1.00;;;;;;6246063;22;20168;-86
2022/10/18 01:07:51;;;;;;;98.22;29.35;;;13.70;99.90;;;;;;6246035;22;20188;-86
2022/10/18 01:10:27;;;;;;;98.63;29.65;;;13.70;99.90;;;;;;6246322;23;20155;-86
2022/10/18 01:13:07;;;;;;;98.45;29.83;;;13.70;17.00;;;;;;6246252;23;20229;-88
2022/10/18 01:15:41;;;;;;;96.70;29.50;;;13.80;1.00;;;;;;6245875;23;20591;-86
2022/10/18 01:18:16;;;;;;;99.10;29.90;;;13.80;42.30;;;;;;6246694;23;20206;-86
2022/10/18 01:21:04;;;;;;;99.55;29.55;;;13.70;99.90;;;;;;6246527;23;20167;-86
2022/10/18 01:23:48;;;;;;;101.68;29.95;;;13.70;79.50;;;;;;6246230;23;20184;-87
2022/10/18 01:26:30;;;;;;;101.05;30.13;;;13.80;99.90;;;;;;6246425;23;20155;-88
2022/10/18 01:29:08;;;;;;;100.65;29.77;;;13.80;99.90;;;;;;6245830;23;20206;-87
2022/10/18 01:31:43;;;;;;;101.47;30.05;;;13.80;54.80;;;;;;6246441;23;20152;-86
2022/10/18 01:34:12;;;;;;;100.10;29.70;;;13.80;99.90;;;;;;6245861;23;20530;-86
2022/10/18 01:36:42;;;;;;;101.35;30.05;;;13.80;99.90;;;;;;6246403;22;20167;-87
2022/10/18 01:39:14;;;;;;;100.25;29.67;;;13.80;99.90;;;;;;6245082;23;20221;-86
2022/10/18 01:41:44;;;;;;;99.50;29.52;;;13.80;99.90;;;;;;6244926;23;20591;-86
2022/10/18 01:44:22;;;;;;;100.00;29.95;;;13.90;99.50;;;;;;6245257;23;20519;-88
2022/10/18 01:46:54;;;;;;;100.03;29.75;;;13.90;99.90;;;;;;6245224;23;20156;-87
2022/10/18 01:49:21;;;;;;;98.03;29.40;;;13.90;99.90;;;;;;6245064;23;20211;-87
2022/10/18 01:51:48;;;;;;;99.43;29.75;;;13.90;99.90;;;;;;6245206;23;20168;-87
2022/10/18 01:54:21;;;;;;;98.63;29.60;;;14.00;99.90;;;;;;6245220;22;20535;-86
2022/10/18 01:56:56;;;;;;;97.30;29.58;;;14.00;99.90;;;;;;6245220;23;20206;-87
2022/10/18 01:59:40;;;;;;;96.05;29.23;;;14.00;99.90;;;;;;6245270;23;20205;-87
2022/10/18 02:02:18;;;;;;;94.13;28.75;;;14.00;99.90;;;;;;6245161;23;20202;-87
2022/10/18 02:08:26;;;;;;;95.45;29.05;;;14.10;99.90;;;;;;6269853;22;20206;-89
2022/10/18 02:11:11;;;;;;;96.00;29.17;;;14.10;1.00;;;;;;6271483;23;20171;-90
2022/10/18 02:17:31;;;;;;;93.90;28.85;;;14.10;1.00;;;;;;6272718;23;20650;-91
2022/10/18 02:20:31;;;;;;;93.65;28.83;;;14.20;1.00;;;;;;6272284;23;20156;-93
2022/10/18 02:23:00;;;;;;;94.70;28.83;;;14.20;1.00;;;;;;6244871;23;20199;-85
2022/10/18 02:25:31;;;;;;;142.85;34.70;;;14.20;1.00;;;;;;6244934;23;20467;-85
2022/10/18 02:27:58;;;;;;;155.57;36.17;;;14.30;1.00;;;;;;6245135;22;20160;-86
2022/10/18 02:30:33;;;;;;;134.63;34.23;;;14.30;1.00;;;;;;6244970;22;20187;-86
2022/10/18 02:33:07;;;;;;;95.23;33.93;;;14.30;99.90;;;;;;6244651;23;20689;-87
2022/10/18 02:35:37;;;;;;;88.40;39.17;;;14.30;1.00;;;;;;6244984;23;20511;-85
2022/10/18 02:38:07;;;;;;;68.70;44.30;;;14.40;1.00;;;;;;6245034;23;20152;-85
2022/10/18 02:40:34;;;;;;;62.60;40.20;;;14.40;1.00;;;;;;6244713;23;20218;-85
2022/10/18 02:43:01;;;;;;;72.93;38.67;;;14.50;1.00;;;;;;6244824;22;20527;-85
2022/10/18 02:45:28;;;;;;;78.80;44.23;;;14.40;1.00;;;;;;6244489;22;20233;-85
2022/10/18 02:47:55;;;;;;;80.30;43.00;;;14.40;99.90;;;;;;6244694;23;20496;-85
2022/10/18 02:50:24;;;;;;;80.37;38.53;;;14.40;99.90;;;;;;6244833;22;20164;-85
2022/10/18 02:52:51;;;;;;;82.40;36.03;;;14.40;99.90;;;;;;6244826;22;20257;-85
2022/10/18 02:55:18;;;;;;;98.05;36.03;;;14.40;1.00;;;;;;6244509;22;20218;-85
2022/10/18 02:57:45;;;;;;;113.47;31.80;;;14.40;99.90;;;;;;6244845;22;20160;-85
2022/10/18 03:00:13;;;;;;;128.23;33.92;;;14.50;1.00;;;;;;6244531;23;20163;-85
2022/10/18 03:02:40;;;;;;;123.83;33.03;;;14.50;1.00;;;;;;6244939;22;20210;-85
2022/10/18 03:05:08;;;;;;;109.78;33.10;;;14.50;1.00;;;;;;6244493;23;20172;-85
2022/10/18 03:07:36;;;;;;;110.07;33.78;;;14.50;1.00;;;;;;6244764;22;20711;-86
2022/10/18 03:10:04;;;;;;;102.07;34.78;;;14.60;1.00;;;;;;6244327;23;20684;-87
2022/10/18 03:12:31;;;;;;;104.10;36.65;;;14.50;1.00;;;;;;6245086;22;20172;-87
2022/10/18 03:14:58;;;;;;;87.30;34.00;;;14.60;1.00;;;;;;6246406;22;20217;-87
2022/10/18 03:17:26;;;;;;;104.25;36.50;;;14.60;1.00;;;;;;6246573;23;20172;-85
2022/10/18 03:19:54;;;;;;;112.53;35.70;;;14.60;1.00;;;;;;6246264;23;20163;-85
2022/10/18 03:22:21;;;;;;;88.07;32.57;;;14.60;1.00;;;;;;6246596;23;20507;-86
2022/10/18 03:24:49;;;;;;;100.68;34.78;;;14.60;1.00;;;;;;6246552;22;20172;-85
2022/10/18 03:27:16;;;;;;;111.78;33.83;;;14.60;1.00;;;;;;6246479;23;20156;-85
2022/10/18 03:29:43;;;;;;;103.63;34.78;;;14.60;1.00;;;;;;6246436;23;20594;-86
2022/10/18 03:32:10;;;;;;;112.87;33.80;;;14.60;1.00;;;;;;6246470;23;20214;-86
2022/10/18 03:34:37;;;;;;;101.47;32.33;;;14.60;1.00;;;;;;6246310;23;20184;-85
2022/10/18 03:37:04;;;;;;;122.27;33.43;;;14.60;1.00;;;;;;6246376;23;20214;-85
2022/10/18 03:39:31;;;;;;;133.20;32.67;;;14.60;1.00;;;;;;6246321;23;20167;-85
2022/10/18 03:42:00;;;;;;;134.57;34.53;;;14.60;1.00;;;;;;6246131;22;20194;-87
2022/10/18 03:44:27;;;;;;;112.70;31.50;;;14.60;1.00;;;;;;6246301;22;20168;-85
2022/10/18 03:46:54;;;;;;;126.00;33.47;;;14.60;1.00;;;;;;6246255;22;20164;-86
2022/10/18 03:49:21;;;;;;;153.30;36.37;;;14.50;1.00;;;;;;6246321;22;20210;-88
2022/10/18 03:51:48;;;;;;;146.73;34.73;;;14.50;1.00;;;;;;6246292;23;20167;-87
2022/10/18 03:54:15;;;;;;;146.97;34.87;;;14.50;1.00;;;;;;6245775;23;20541;-85
2022/10/18 03:56:42;;;;;;;156.23;36.47;;;14.50;1.00;;;;;;6246231;23;20163;-85
2022/10/18 03:59:10;;;;;;;158.03;36.97;;;14.50;1.00;;;;;;6246230;23;20160;-85
2022/10/18 04:01:37;;;;;;;157.13;36.67;;;14.50;1.00;;;;;;6246656;23;20590;-85
2022/10/18 04:04:04;;;;;;;157.67;37.10;;;14.50;1.00;;;;;;6245791;23;20172;-86
2022/10/18 04:06:31;;;;;;;155.10;36.53;;;14.50;1.00;;;;;;6246278;23;20167;-85
2022/10/18 04:08:58;;;;;;;153.13;36.17;;;14.50;99.90;;;;;;6245512;23;20184;-85
2022/10/18 04:11:25;;;;;;;151.00;35.80;;;14.50;1.00;;;;;;6245762;22;20164;-85
2022/10/18 04:13:52;;;;;;;147.27;34.77;;;14.50;99.90;;;;;;6245758;23;20226;-85
2022/10/18 04:16:21;;;;;;;149.00;35.90;;;14.50;1.00;;;;;;6245860;23;20167;-85
2022/10/18 04:18:48;;;;;;;148.98;35.95;;;14.40;1.00;;;;;;6245939;23;20164;-87
2022/10/18 04:21:15;;;;;;;149.18;35.28;;;14.40;1.00;;;;;;6245494;22;20555;-87
2022/10/18 04:23:42;;;;;;;145.20;34.58;;;14.40;1.00;;;;;;6245195;23;20175;-87
2022/10/18 04:26:09;;;;;;;148.98;35.42;;;14.40;1.00;;;;;;6245983;22;20527;-87
2022/10/18 04:28:38;;;;;;;146.50;35.27;;;14.40;1.00;;;;;;6245270;23;20486;-86
2022/10/18 04:31:07;;;;;;;144.13;34.90;;;14.40;1.00;;;;;;6246059;22;20238;-85
2022/10/18 04:33:35;;;;;;;142.03;34.10;;;14.40;1.00;;;;;;6245652;23;20265;-85
2022/10/18 04:36:02;;;;;;;142.68;34.92;;;14.40;1.00;;;;;;6245739;23;20218;-86
2022/10/18 04:38:29;;;;;;;140.85;34.55;;;14.40;1.00;;;;;;6245394;22;20183;-85
2022/10/18 04:40:56;;;;;;;139.50;34.55;;;14.40;1.00;;;;;;6245266;23;20230;-87
2022/10/18 04:43:23;;;;;;;138.02;34.13;;;14.40;99.90;;;;;;6243994;22;20666;-86
2022/10/18 04:45:51;;;;;;;138.40;34.33;;;14.40;99.90;;;;;;6244894;23;20234;-86
2022/10/18 04:48:18;;;;;;;137.52;34.28;;;14.50;99.90;;;;;;6244272;22;20164;-86
2022/10/18 04:50:50;;;;;;;139.05;34.17;;;14.50;1.00;;;;;;6244469;22;20525;-86
2022/10/18 04:53:18;;;;;;;137.97;33.93;;;14.40;99.90;;;;;;6244362;23;20583;-85
2022/10/18 04:55:46;;;;;;;135.20;33.40;;;14.50;1.00;;;;;;6244264;23;20475;-86
2022/10/18 04:58:13;;;;;;;132.63;33.28;;;14.40;99.90;;;;;;6242185;23;20168;-86
2022/10/18 05:00:41;;;;;;;132.35;33.30;;;14.50;1.00;;;;;;6244518;23;20526;-86
2022/10/18 05:03:08;;;;;;;133.15;33.70;;;14.50;99.90;;;;;;6244473;23;20171;-85
2022/10/18 05:05:36;;;;;;;131.95;33.28;;;14.40;99.90;;;;;;6245411;23;20171;-86
2022/10/18 05:08:07;;;;;;;132.30;33.37;;;14.40;99.90;;;;;;6244761;23;20183;-85
2022/10/18 05:10:34;;;;;;;128.70;32.88;;;14.40;1.00;;;;;;6244700;23;20645;-86
2022/10/18 05:13:01;;;;;;;124.68;32.15;;;14.40;99.90;;;;;;6244763;23;20172;-86
2022/10/18 05:15:28;;;;;;;129.18;32.80;;;14.40;99.90;;;;;;6245166;23;20474;-85
2022/10/18 05:17:55;;;;;;;129.02;33.08;;;14.40;99.90;;;;;;6244343;22;20168;-85
2022/10/18 05:20:22;;;;;;;130.93;33.42;;;14.40;1.00;;;;;;6244916;23;20610;-85
2022/10/18 05:22:49;;;;;;;131.63;33.47;;;14.40;1.00;;;;;;6245717;23;20210;-86
2022/10/18 05:25:17;;;;;;;133.70;33.78;;;14.40;1.00;;;;;;6245021;22;20168;-85
2022/10/18 05:27:44;;;;;;;135.80;33.78;;;14.40;1.00;;;;;;6245182;23;20187;-85
2022/10/18 05:30:11;;;;;;;137.03;33.77;;;14.40;1.00;;;;;;6245147;22;20171;-85
2022/10/18 05:32:38;;;;;;;135.88;33.78;;;14.40;1.00;;;;;;6245757;22;20585;-85
2022/10/18 05:35:06;;;;;;;133.88;33.58;;;14.50;1.00;;;;;;6244960;22;20184;-86
2022/10/18 05:37:33;;;;;;;134.45;33.58;;;14.50;99.90;;;;;;6244933;22;20164;-86
2022/10/18 05:40:00;;;;;;;134.60;33.43;;;14.50;99.90;;;;;;6245210;23;20218;-86
2022/10/18 05:42:29;;;;;;;132.95;33.25;;;14.50;1.00;;;;;;6245196;22;20187;-85
2022/10/18 05:44:56;;;;;;;132.18;33.10;;;14.60;99.90;;;;;;6244750;22;20522;-85
2022/10/18 05:47:23;;;;;;;128.88;32.95;;;14.60;1.00;;;;;;6245039;22;20172;-85
2022/10/18 05:49:50;;;;;;;128.18;32.97;;;14.60;1.00;;;;;;6244912;23;20448;-85
2022/10/18 05:52:17;;;;;;;129.02;32.55;;;14.60;1.00;;;;;;6244744;23;20168;-85
2022/10/18 05:54:44;;;;;;;133.20;33.38;;;14.70;1.00;;;;;;6245305;23;20191;-85
2022/10/18 05:57:11;;;;;;;131.43;33.15;;;14.70;99.90;;;;;;6244986;23;20164;-85
2022/10/18 05:59:39;;;;;;;132.18;33.22;;;14.70;99.90;;;;;;6245097;22;20210;-87
2022/10/18 06:02:06;;;;;;;131.55;33.22;;;14.70;1.00;;;;;;6245046;23;20171;-86
2022/10/18 06:04:34;;;;;;;130.35;33.03;;;14.70;1.00;;;;;;6245115;22;20533;-85
2022/10/18 06:07:01;;;;;;;129.13;32.88;;;14.70;1.00;;;;;;6245082;23;20467;-86
2022/10/18 06:09:29;;;;;;;130.65;33.28;;;14.70;1.00;;;;;;6244517;22;20265;-85
2022/10/18 06:11:57;;;;;;;129.60;33.22;;;14.70;1.00;;;;;;6244942;23;20242;-84
2022/10/18 06:14:28;;;;;;;129.65;33.20;;;14.70;1.00;;;;;;6260133;22;20219;-89
2022/10/18 06:17:15;;;;;;;127.50;32.40;;;14.70;1.00;;;;;;6268673;23;20168;-88
2022/10/18 06:20:06;;;;;;;127.40;32.92;;;14.70;1.00;;;;;;6271793;23;20160;-91
2022/10/18 06:22:46;;;;;;;127.60;32.72;;;14.80;1.00;;;;;;6271514;22;20152;-89
2022/10/18 06:25:19;;;;;;;127.63;32.75;;;14.80;1.00;;;;;;6272110;23;20155;-90
2022/10/18 06:27:50;;;;;;;125.68;32.25;;;14.80;1.00;;;;;;6272152;23;20171;-88
2022/10/18 06:30:32;;;;;;;124.85;32.35;;;14.80;1.00;;;;;;6271212;22;20168;-88
2022/10/18 06:33:12;;;;;;;123.50;31.88;;;14.80;1.00;;;;;;6272110;23;20148;-90
2022/10/18 06:35:58;;;;;;;125.05;32.47;;;14.80;1.00;;;;;;6271187;23;20191;-91
2022/10/18 06:38:35;;;;;;;123.32;32.08;;;14.80;1.00;;;;;;6271631;23;20182;-90
2022/10/18 06:41:16;;;;;;;126.90;32.92;;;14.80;1.00;;;;;;6271725;23;20155;-89
2022/10/18 06:43:57;;;;;;;125.20;32.47;;;14.90;1.00;;;;;;6272062;22;20159;-89
2022/10/18 06:46:25;;;;;;;124.10;32.55;;;14.90;99.90;;;;;;6266147;23;20163;-87
2022/10/18 06:48:54;;;;;;;123.53;32.40;;;14.90;1.00;;;;;;6246232;23;20214;-84
2022/10/18 06:51:25;;;;;;;123.28;32.25;;;14.90;1.00;;;;;;6263678;22;20159;-92
2022/10/18 06:54:04;;;;;;;123.60;32.42;;;14.90;76.00;;;;;;6273817;22;20148;-89
2022/10/18 06:59:45;;;;;;;124.90;32.60;;;14.90;1.00;;;;;;6273453;23;20156;-90
2022/10/18 07:02:23;;;;;;;124.30;32.45;;;14.90;99.90;;;;;;6273943;23;20171;-89
2022/10/18 07:05:32;;;;;;;125.50;32.47;;;14.90;99.90;;;;;;6273585;23;20154;-90
2022/10/18 07:08:15;;;;;;;123.60;32.45;;;15.00;99.90;;;;;;6270431;22;20192;-90
2022/10/18 07:10:53;;;;;;;122.18;31.90;;;15.00;99.90;;;;;;6273863;23;20255;-88
2022/10/18 07:13:34;;;;;;;128.35;33.13;;;15.00;99.00;;;;;;6272641;23;20155;-89
2022/10/18 07:16:27;;;;;;;138.93;34.00;;;15.10;99.90;;;;;;6273638;23;20629;-90
2022/10/18 07:19:09;;;;;;;141.35;34.80;;;15.10;98.10;;;;;;6273787;23;20212;-91
2022/10/18 07:21:55;;;;;;;141.38;34.35;;;15.10;99.90;;;;;;6273170;22;20176;-90
2022/10/18 07:24:44;;;;;;;140.43;34.45;;;15.20;99.90;;;;;;6273456;22;20216;-89
2022/10/18 07:27:11;;;;;;;140.73;34.38;;;15.20;99.90;;;;;;6273509;23;20163;-89
2022/10/18 07:32:44;;;;;;;141.27;34.50;;;15.30;99.90;;;;;;6269780;23;20157;-89
2022/10/18 07:35:14;;;;;;;142.82;34.67;;;15.40;99.90;;;;;;6273118;23;20184;-88
2022/10/18 07:37:45;;;;;;;141.85;34.72;;;15.40;1.00;;;;;;6273740;23;20136;-88
2022/10/18 07:40:16;;;;;;;138.27;34.25;;;15.40;1.00;;;;;;6273126;22;20171;-90
2022/10/18 07:42:53;;;;;;;136.07;33.97;;;15.40;99.90;;;;;;6273773;23;20183;-89
2022/10/18 07:45:25;;;;;;;142.80;34.75;;;15.50;99.90;;;;;;6273211;23;20574;-88
2022/10/18 07:48:01;;;;;;;138.95;34.25;;;15.50;99.90;;;;;;6272697;23;20132;-89
2022/10/18 07:53:46;;;;;;;137.13;33.50;;;15.50;99.90;;;;;;6271177;23;20164;-89
2022/10/18 07:56:19;;;;;;;135.95;33.13;;;15.60;99.90;;;;;;6273644;23;20180;-90
2022/10/18 07:58:55;;;;;;;134.18;33.13;;;15.60;99.90;;;;;;6272336;23;20184;-92
2022/10/18 08:01:30;;;;;;;132.90;33.08;;;15.60;99.90;;;;;;6272737;23;20152;-88
2022/10/18 08:04:02;;;;;;;132.07;32.97;;;15.60;99.90;;;;;;6272954;23;20163;-90
2022/10/18 08:06:43;;;;;;;136.43;34.08;;;15.60;99.90;;;;;;6272440;23;20176;-91
2022/10/18 08:09:17;;;;;;;136.45;33.97;;;15.70;1.00;;;;;;6272570;22;20274;-91
2022/10/18 08:11:48;;;;;;;135.75;33.95;;;15.70;99.90;;;;;;6272551;23;20179;-88
2022/10/18 08:15:15;;;;;;;135.98;33.95;;;15.70;99.90;;;;;;6272940;23;20144;-90
2022/10/18 08:17:48;;;;;;;135.77;33.88;;;15.80;99.90;;;;;;6272908;23;20164;-89
2022/10/18 08:20:21;;;;;;;132.60;33.65;;;15.80;1.00;;;;;;6273063;23;20174;-88
2022/10/18 08:22:55;;;;;;;133.07;33.40;;;15.90;1.00;;;;;;6272358;23;20164;-91
2022/10/18 08:25:37;;;;;;;130.90;33.42;;;16.00;14.90;;;;;;6272430;22;20170;-89
2022/10/18 08:28:06;;;;;;;;;;;16.00;99.90;;;;;;6215052;23;20219;-88
2022/10/18 08:30:49;;;;;;;131.77;33.40;;;16.10;99.90;;;;;;6272699;22;20332;-89
2022/10/18 08:33:23;;;;;;;132.98;33.50;;;16.10;1.00;;;;;;6272554;22;20156;-88
2022/10/18 08:35:56;;;;;;;130.50;33.40;;;16.20;1.00;;;;;;6250366;23;20180;-84
2022/10/18 08:38:24;;;;;;;129.00;33.15;;;16.30;2.40;;;;;;6245246;22;20479;-85
2022/10/18 08:40:51;;;;;;;128.20;32.85;;;16.20;99.90;;;;;;6245273;23;20167;-84
2022/10/18 08:43:29;;;;;;;127.53;32.90;;;16.20;1.00;;;;;;6246011;22;20164;-85
2022/10/18 08:45:56;;;;;;;126.90;32.88;;;16.20;1.00;;;;;;6245482;23;20163;-84
2022/10/18 08:48:35;;;;;;;125.90;32.20;;;16.20;1.00;;;;;;6245105;22;20669;-84
2022/10/18 08:51:11;;;;;;;125.53;32.38;;;16.20;1.00;;;;;;6254595;23;20159;-91
2022/10/18 08:54:02;;;;;;;128.60;32.90;;;16.20;1.00;;;;;;6272529;23;20156;-90
2022/10/18 08:56:59;;;;;;;129.02;33.13;;;16.20;79.30;;;;;;6272016;23;20183;-90
2022/10/18 08:59:44;;;;;;;128.20;33.05;;;16.20;99.90;;;;;;6272466;23;20229;-90
2022/10/18 09:02:40;;;;;;;132.60;33.63;;;16.30;53.70;;;;;;6272874;23;20147;-90
2022/10/18 09:05:25;;;;;;;126.78;32.40;;;16.30;99.90;;;;;;6272122;23;20164;-86
2022/10/18 09:08:31;;;;;;;122.57;32.00;;;16.30;1.00;;;;;;6271700;22;20198;-89
2022/10/18 09:11:15;;;;;;;122.93;32.10;;;16.30;1.00;;;;;;6243755;22;20164;-91
2022/10/18 09:14:31;;;;;;;124.22;32.58;;;16.40;1.00;;;;;;6272642;23;20156;-90
2022/10/18 09:17:21;;;;;;;123.80;32.67;;;16.40;99.90;;;;;;6272016;23;20194;-91
2022/10/18 09:20:09;;;;;;;124.15;32.58;;;16.50;99.90;;;;;;6272464;23;20187;-89
2022/10/18 09:22:57;;;;;;;119.47;31.63;;;16.50;99.90;;;;;;6272661;23;20219;-90
2022/10/18 09:25:36;;;;;;;120.53;31.85;;;16.60;99.90;;;;;;6272152;23;20155;-90
2022/10/18 09:28:44;;;;;;;119.85;32.10;;;16.60;99.90;;;;;;6272126;23;20203;-90
2022/10/18 09:34:41;;;;;;;118.93;31.98;;;16.60;1.00;;;;;;6252717;23;20166;-88
2022/10/18 09:41:43;;;;;;;116.47;31.63;;;16.60;99.90;;;;;;6271412;23;20136;-90
2022/10/18 09:45:08;;;;;;;118.47;31.90;;;16.70;60.80;;;;;;6197680;22;20246;-89
2022/10/18 09:57:48;;;;;;;118.18;31.77;;;16.70;1.00;;;;;;6121607;22;20164;-85
2022/10/18 10:00:20;;;;;;;118.93;32.03;;;16.80;1.00;;;;;;6245373;23;20148;-86
2022/10/18 10:06:59;;;;;;;;;;;;;;;;;;;;;
2022/10/18 10:16:51;;;;;;;;;;;;;;;;;;;;;
2022/10/18 10:23:19;;;;;;;113.72;31.48;;;17.10;99.90;;;;;;5962330;23;20206;-87
2022/10/18 10:32:58;;;;;;;345.23;279.95;;;17.30;1.00;;;;;;5973452;23;20167;-90
2022/10/18 10:35:31;;;;;;;13.40;9.10;;;17.40;1.00;;;;;;6096343;23;20194;-85
2022/10/18 10:37:58;;;;;;;196.98;177.50;;;17.40;1.00;;;;;;6095365;23;20160;-85
2022/10/18 10:40:26;;;;;;;12.80;10.82;;;17.40;1.00;;;;;;6155764;23;20177;-85
2022/10/18 10:43:06;;;;;;;16.20;11.23;;;17.50;1.00;;;;;;6246584;22;20175;-85
2022/10/18 10:45:36;;;;;;;663.97;396.00;;;17.50;1.00;;;;;;6247070;23;20263;-85
2022/10/18 10:48:18;;;;;;;544.47;355.27;;;17.50;1.00;;;;;;6247082;23;20160;-84
2022/10/18 10:50:56;;;;;;;653.40;453.73;;;17.50;1.00;;;;;;6246814;23;20156;-85
2022/10/18 10:53:40;;;;;;;657.70;371.30;;;17.50;1.00;;;;;;6246671;23;20518;-84
2022/10/18 10:56:21;;;;;;;625.03;348.13;;;17.40;99.90;;;;;;6242936;23;20239;-84
2022/10/18 10:59:16;;;;;;;634.07;348.60;;;17.40;99.90;;;;;;6258680;23;20163;-90
2022/10/18 11:01:50;;;;;;;624.43;333.93;;;17.40;99.90;;;;;;6273539;23;20156;-89
2022/10/18 11:04:52;;;;;;;626.00;336.10;;;17.40;1.00;;;;;;6274118;22;20137;-89
2022/10/18 11:07:28;;;;;;;617.67;325.43;;;17.40;1.00;;;;;;6273660;22;20222;-90
2022/10/18 11:10:25;;;;;;;625.40;376.73;;;17.40;1.00;;;;;;6273565;23;20146;-89
2022/10/18 11:13:03;;;;;;;634.97;425.93;;;17.40;1.00;;;;;;6273453;23;20176;-91
2022/10/18 11:15:35;;;;;;;709.57;385.30;;;17.40;1.00;;;;;;6247072;23;20180;-85
2022/10/18 11:18:13;;;;;;;722.43;395.03;;;17.40;1.00;;;;;;6246942;23;20153;-85
2022/10/18 11:21:11;;;;;;;;;;;;;;;;;;;;;
2022/10/18 11:24:12;;;;;;;337.67;176.57;;;17.30;99.90;;;;;;6248048;23;20163;-86
2022/10/18 11:30:52;;;;;;;718.47;333.63;;;17.10;1.00;;;;;;6136152;23;20159;-87
2022/10/18 11:37:46;;;;;;;;;;;;;;;;;;;;;
2022/10/18 11:41:01;;;;;;;;;;;;;;;;;;;;;
2022/10/18 11:54:02;;;;;;;;;;;;;;;;;;;;;
2022/10/18 11:57:01;;;;;;;;;;;;;;;;;;;;;
2022/10/18 12:00:08;;;;;;;;;;;;;;;;;;;;;
2022/10/18 12:06:20;;;;;;;108.67;103.10;;;16.30;1.00;;;;;;5992979;23;20168;-89
2022/10/18 12:09:01;;;;;;;102.77;97.50;;;16.30;1.00;;;;;;6103300;23;20669;-89
2022/10/18 12:11:53;;;;;;;;;;;;;;;;;;;;;
2022/10/18 12:15:23;;;;;;;;;;;;;;;;;;;;;
2022/10/18 12:18:52;;;;;;;90.30;84.90;;;16.10;1.00;;;;;;6164888;22;20160;-90
2022/10/18 12:28:32;;;;;;;90.97;86.43;;;15.90;1.00;;;;;;6049377;23;20253;-88
2022/10/18 12:34:46;;;;;;;;;;;;;;;;;;;;;
2022/10/18 12:41:36;;;;;;;81.43;77.20;;;15.70;99.90;;;;;;6099258;23;20206;-90
2022/10/18 12:45:00;;;;;;;;;;;;;;;;;;;;;
2022/10/18 12:59:41;;;;;;;73.37;69.50;;;15.50;1.00;;;;;;5954124;23;20169;-86
2022/10/18 13:02:28;;;;;;;77.67;73.70;;;15.50;1.00;;;;;;6116013;22;20525;-86
2022/10/18 13:04:56;;;;;;;81.80;77.60;;;15.50;1.00;;;;;;6245475;22;20226;-86
2022/10/18 13:07:42;;;;;;;81.17;77.03;;;15.50;1.00;;;;;;6245179;23;20616;-86
2022/10/18 13:10:39;;;;;;;75.07;71.23;;;15.50;99.90;;;;;;6244471;23;20175;-86
2022/10/18 13:13:37;;;;;;;67.57;64.07;;;15.40;99.90;;;;;;6245610;23;20155;-85
2022/10/18 13:16:25;;;;;;;66.77;63.10;;;15.50;22.70;;;;;;6244912;23;20585;-85
2022/10/18 13:18:55;;;;;;;64.93;60.80;;;15.40;1.00;;;;;;6245340;23;20156;-86
2022/10/18 13:21:33;;;;;;;58.45;55.00;;;15.40;99.90;;;;;;6245300;23;20169;-86
2022/10/18 13:27:44;;;;;;;61.55;57.33;;;15.40;3.40;;;;;;6269911;22;20175;-90
2022/10/18 13:30:31;;;;;;;60.08;55.35;;;15.40;99.90;;;;;;6271575;23;20171;-88
2022/10/18 13:33:22;;;;;;;54.92;51.38;;;15.40;99.90;;;;;;6271931;23;20144;-89
2022/10/18 13:36:03;;;;;;;54.25;51.22;;;15.40;99.90;;;;;;6272859;23;20171;-88
2022/10/18 13:38:48;;;;;;;53.58;49.65;;;15.40;1.00;;;;;;6271291;23;20164;-91
2022/10/18 13:41:24;;;;;;;55.50;50.30;;;15.50;99.90;;;;;;6271851;23;20158;-91
2022/10/18 13:44:31;;;;;;;54.00;49.45;;;15.50;99.90;;;;;;6270971;23;20148;-88
2022/10/18 13:47:39;;;;;;;61.03;56.55;;;15.60;99.90;;;;;;6267708;22;20170;-87
2022/10/18 13:50:34;;;;;;;55.85;51.08;;;15.60;99.90;;;;;;6248560;23;20218;-82
2022/10/18 13:53:29;;;;;;;60.83;56.03;;;15.60;99.90;;;;;;6244413;22;20218;-82
2022/10/18 13:56:45;;;;;;;57.90;53.55;;;15.70;1.00;;;;;;6244989;23;20153;-82
2022/10/18 13:59:47;;;;;;;54.92;50.40;;;15.80;99.90;;;;;;6258544;23;20590;-88
2022/10/18 14:02:39;;;;;;;54.97;50.33;;;15.80;1.00;;;;;;6225400;23;20183;-81
2022/10/18 14:05:41;;;;;;;58.88;54.03;;;15.90;1.00;;;;;;6244649;23;20184;-81
2022/10/18 14:08:13;;;;;;;57.15;52.35;;;15.90;38.20;;;;;;6244589;23;20529;-81
2022/10/18 14:10:51;;;;;;;51.63;46.55;;;16.00;1.00;;;;;;6244393;23;20206;-82
2022/10/18 14:13:23;;;;;;;53.85;49.30;;;16.00;99.90;;;;;;6245056;23;20153;-82
2022/10/18 14:15:55;;;;;;;58.15;52.20;;;16.10;1.00;;;;;;6244516;23;20156;-81
2022/10/18 14:18:31;;;;;;;54.95;50.65;;;16.10;1.00;;;;;;6263477;23;20172;-88
2022/10/18 14:21:05;;;;;;;58.33;46.00;;;16.10;99.90;;;;;;6270961;23;20159;-84
2022/10/18 14:23:35;;;;;;;52.05;45.22;;;16.10;99.90;;;;;;6250072;23;20141;-82
2022/10/18 14:26:13;;;;;;;52.17;47.13;;;16.00;99.90;;;;;;6243987;23;20206;-83
2022/10/18 14:28:40;;;;;;;47.08;41.92;;;16.00;49.60;;;;;;6244659;23;20144;-82
2022/10/18 14:31:13;;;;;;;57.65;52.80;;;15.90;1.00;;;;;;6244491;23;20215;-82
2022/10/18 14:33:43;;;;;;;52.38;46.95;;;16.00;1.00;;;;;;6244586;23;20471;-83
2022/10/18 14:36:14;;;;;;;51.28;45.28;;;15.90;99.90;;;;;;6244500;23;20368;-84
2022/10/18 14:38:51;;;;;;;64.60;46.80;;;15.90;99.90;;;;;;6244420;23;20231;-83
2022/10/18 14:41:23;;;;;;;54.28;48.35;;;15.90;1.00;;;;;;6248079;23;20179;-87
2022/10/18 14:43:52;;;;;;;52.95;46.92;;;15.90;1.00;;;;;;6270565;23;20172;-86
2022/10/18 14:46:28;;;;;;;49.40;44.35;;;15.90;1.00;;;;;;6270518;22;20210;-86
2022/10/18 14:49:00;;;;;;;49.97;44.20;;;15.80;1.00;;;;;;6271282;22;20157;-90
2022/10/18 14:51:33;;;;;;;56.17;49.13;;;15.80;1.00;;;;;;6270158;23;20172;-88
2022/10/18 14:54:15;;;;;;;45.83;36.83;;;15.70;1.00;;;;;;6270514;23;20160;-89
2022/10/18 14:56:43;;;;;;;61.97;37.88;;;15.70;1.00;;;;;;6260779;23;20247;-85
2022/10/18 14:59:16;;;;;;;67.68;41.45;;;15.70;1.00;;;;;;6244804;23;20164;-85
2022/10/18 15:01:52;;;;;;;70.38;36.70;;;15.60;1.00;;;;;;6243969;23;20211;-86
2022/10/18 15:04:29;;;;;;;71.32;36.47;;;15.60;1.00;;;;;;6271143;23;20174;-89
2022/10/18 15:07:00;;;;;;;77.38;35.88;;;15.50;1.00;;;;;;6260624;23;20644;-84
2022/10/18 15:09:27;;;;;;;94.57;34.45;;;15.50;1.00;;;;;;6261698;23;20187;-86
2022/10/18 15:11:59;;;;;;;104.47;34.13;;;15.50;1.00;;;;;;6259480;23;20156;-86
2022/10/18 15:14:33;;;;;;;110.93;32.83;;;15.40;1.00;;;;;;6263984;23;20239;-89